x

East Gulf - 208 Mn West Of Naples, Fl (42003) Wave Buoy

10:50pm - Sat 24th Jan 2015 All times are EST. -5 hours from GMT.

  • Sig Wave height 8.5ft
  • Swell Direction
  • Peak Period 9s
  • Average Period 7s
  • Wind
    16mph, 20mph gusts
  • Sea Temp 73°f
  • Air Temp 63°f
  • Sea Pressure 1019.1mb
  • East Gulf - 208 Mn West Of Naples, Fl
  • East Gulf - 208 Mn West Of Naples, Fl

More Historic Weather Station data

Upgrade to MSW Pro to gain access to the past 30 days of data for over 8000 Wavebouys and Weather Stations around the globe.

Join Pro

Comparision Forecast

View Surf forecast
   
Sat 01/24 10:50pm 8.5ft 9s 7s 16 20 mph 1019.1mb 73f 63f
9:50pm 9ft 9s 7s 16 22 mph 1018.9mb 73f 63f
8:50pm 8.5ft 8s 7s 18 22 mph 1018.6mb 73f 63f
7:50pm 9ft 8s 7s 18 25 mph 1018.4mb 73f 63f
6:50pm 10ft 10s 7s 18 27 mph 1017.9mb 73f 64f
5:50pm 10ft 9s 7s 18 25 mph 1017.5mb 73f 65f
4:50pm 12ft 10s 8s 22 27 mph 1017mb 73f 65f
3:50pm 13ft 10s 8s 20 27 mph 1016.7mb 73f 66f
2:50pm 12.5ft 10s 8s 20 25 mph 1017mb 73f 65f
1:50pm 12.5ft 10s 7s 22 27 mph 1017.2mb 73f 66f
12:50pm 13.5ft 10s 8s 22 29 mph 1018.5mb 73f 65f
11:50am 12.5ft 10s 7s 25 31 mph 1018.6mb 73f 66f
10:50am 12ft 9s 7s 22 25 mph 1018.6mb 73f 66f
9:50am 11ft 9s 7s 25 29 mph 1017.8mb 73f 67f
8:50am 10ft 8s 6s 25 29 mph 1016.9mb 73f 68f
7:50am 10.5ft 8s 6s 29 34 mph 1015.7mb 73f 69f
6:50am 9ft 8s 6s 29 36 mph 1014.7mb 73f 69f
5:50am 8ft 7s 6s 29 36 mph 1013.9mb 73f 69f
4:50am 8ft 7s 6s 27 31 mph 1013.7mb 74f 69f
3:50am 7ft 7s 5s 27 34 mph 1013.2mb 74f 69f
2:50am 7ft 8s 6s 25 31 mph 1012.9mb 74f 71f
1:50am 6ft 8s 6s 22 27 mph 1012.5mb 74f 73f
12:50am 6ft 8s 6s 16 18 mph 1012.3mb 74f 73f
Fri 01/23 11:50pm 6ft 8s 6s 16 20 mph 1012.7mb 74f 73f
10:50pm 6ft 7s 6s 13 18 mph 1012.5mb 74f 74f
9:50pm 5.5ft 7s 5s 13 16 mph 1012.6mb 74f 73f
8:50pm 6ft 7s 6s 25 29 mph 1012.3mb 74f 73f
7:50pm 6ft 8s 5s 18 22 mph 1011.8mb 74f 76f
6:50pm 5ft 7s 5s 18 22 mph 1011.7mb 74f 75f
5:50pm 5ft 7s 5s 22 27 mph 1011mb 74f 75f
4:50pm 5.5ft 7s 5s 20 27 mph 1011.5mb 74f 74f
3:50pm 6ft 7s 5s 16 20 mph 1011.6mb 74f 76f
2:50pm 5.5ft 6s 5s 18 22 mph 1012.1mb 74f 75f
1:50pm 6ft 6s 5s 18 20 mph 1012.3mb 74f 76f
12:50pm 5ft 6s 5s 16 20 mph 1013.4mb 74f 76f
11:50am 5ft 6s 5s 18 20 mph 1014mb 74f 76f
10:50am 5ft 5s 5s 20 22 mph 1013.9mb 74f 76f
9:50am 4.5ft 6s 5s 20 22 mph 1013.9mb 74f 76f
8:50am 4.5ft 6s 5s 18 20 mph 1014.1mb 74f 75f
7:50am 4ft 6s 5s 16 18 mph 1014.5mb 74f 75f
6:50am 3.5ft 6s 5s 11 13 mph 1014.7mb 74f 75f
5:50am 3.5ft 5s 5s 11 13 mph 1014.5mb 74f 74f
4:50am 3.5ft 5s 4s 16 18 mph 1014.4mb 74f 75f
3:50am 3.5ft 5s 4s 13 16 mph 1014.7mb 74f 74f
2:50am 3.5ft 5s 4s 18 20 mph 1014.7mb 74f 74f
1:50am 3ft 4s 4s 18 25 mph 1015.3mb 74f 74f
12:50am 3ft 5s 4s 16 18 mph 1015.9mb 74f 74f
Thu 01/22 11:50pm 2.5ft 4s 4s 16 20 mph 1016.4mb 74f 74f
10:50pm 2.5ft 4s 4s 18 20 mph 1016.6mb 74f 74f
9:50pm 2.5ft 4s 4s 16 18 mph 1017.4mb 74f 74f
8:50pm 2.5ft 4s 4s 13 16 mph 1017.6mb 74f 74f
7:50pm 2ft 4s 3s 16 18 mph 1017.3mb 74f 74f
6:50pm 2ft 3s 3s 16 18 mph 1017.4mb 74f 74f
5:50pm 2ft 4s 3s 16 18 mph 1017.3mb 74f 74f
4:50pm 2ft 3s 4s 16 18 mph 1017.2mb 74f 73f
3:50pm 2ft 3s 3s 13
mph
1017.3mb 74f 73f
2:50pm 2ft 4s 4s 13 16 mph 1017.4mb 74f 73f
1:50pm 2ft 4s 4s 13 16 mph 1018mb 74f 73f
12:50pm 2ft 5s 4s 16 18 mph 1018.9mb 74f 73f
11:50am 2ft 4s 4s 11 13 mph 1019.9mb 74f 73f
10:50am 2ft 3s 4s 13 16 mph 1020.5mb 74f 73f
9:50am 2ft 4s 4s 13 16 mph 1020.6mb 74f 73f
8:50am 2ft 3s 4s 16 18 mph 1019.6mb 73f 72f
7:50am 2ft 4s 4s 13 16 mph 1019.3mb 73f 72f
6:50am 2ft 4s 4s 13
mph
1018.8mb 73f 72f
5:50am 1.6ft 4s 4s 11 13 mph 1018.2mb 74f 72f
4:50am 1.6ft 4s 4s 11 13 mph 1017.8mb 74f 72f
3:50am 2ft 3s 4s 11 13 mph 1017.7mb 73f 72f
2:50am 1.6ft 3s 3s 11 13 mph 1017.7mb 73f 72f
1:50am 1.6ft 5s 4s 13 16 mph 1017.7mb 73f 73f
12:50am 1.6ft 5s 4s 13 16 mph 1018mb 73f 73f
Wed 01/21 11:50pm 1.6ft 5s 4s 11 13 mph 1018.2mb 74f 73f
10:50pm 1.6ft 5s 4s 11
mph
1018.3mb 74f 73f
9:50pm 1.6ft 5s 4s 11 13 mph 1018mb 74f 73f
8:50pm 1.6ft 5s 4s 9 11 mph 1017.6mb 74f 73f
7:50pm 1.3ft 5s 4s 7 9 mph 1017.4mb 74f 74f
6:50pm 1ft 5s 4s 7
mph
1017.1mb 74f 74f
5:50pm 1.3ft 5s 4s 2 4 mph 1016.6mb 75f 74f
4:50pm 1.3ft 5s 4s 4 7 mph 1016.2mb 75f 74f
3:50pm 1.3ft 5s 4s 4
mph
1016.1mb 76f 74f
2:50pm 1.3ft 6s 4s 2
mph
1016.4mb 76f 74f
12:50pm 1.3ft 6s 4s 2
mph
1017.4mb 75f 74f
11:50am 1.3ft 5s 4s 2
mph
1018mb 74f 74f
10:50am 1.6ft 6s 4s 2
mph
1018.4mb 74f 73f
9:50am 1.6ft 7s 5s 4
mph
1017.8mb 73f 73f
8:50am 1.6ft 6s 5s 2 4 mph 1017.2mb 73f 73f
7:50am 1.6ft 5s 4s 4
mph
1016.7mb 73f 72f
6:50am 1.6ft 6s 5s 4
mph
1016.1mb 73f 72f
5:50am 1.6ft 5s 5s 2 4 mph 1015.5mb 73f 72f